createdAt,value
2017-10-04T00:04:02.829Z,9.50
2017-10-04T00:09:06.779Z,10.00
2017-10-04T00:14:09.969Z,10.00
2017-10-04T00:19:13.186Z,10.00
2017-10-04T00:24:16.361Z,10.00
2017-10-04T00:29:20.302Z,9.50
2017-10-04T00:34:24.338Z,9.50
2017-10-04T00:39:27.546Z,9.50
2017-10-04T00:44:30.760Z,9.50
2017-10-04T00:49:33.966Z,9.50
2017-10-04T00:54:37.146Z,9.50
2017-10-04T00:59:41.201Z,9.20
2017-10-04T01:04:44.339Z,9.20
2017-10-04T01:09:47.501Z,9.20
2017-10-04T01:14:50.645Z,9.10
2017-10-04T01:19:53.796Z,9.00
2017-10-04T01:24:56.963Z,8.80
2017-10-04T01:30:00.223Z,8.80
2017-10-04T01:35:03.491Z,8.70
2017-10-04T01:40:06.694Z,8.80
2017-10-04T01:45:10.667Z,8.70
2017-10-04T01:50:13.881Z,8.70
2017-10-04T01:55:18.137Z,8.80
2017-10-04T02:00:21.408Z,8.80
2017-10-04T02:05:24.866Z,8.80
2017-10-04T02:10:28.049Z,8.80
2017-10-04T02:15:31.223Z,8.80
2017-10-04T02:20:34.367Z,8.80
2017-10-04T02:25:37.768Z,8.70
2017-10-04T02:30:40.942Z,8.50
2017-10-04T02:35:44.101Z,8.30
2017-10-04T02:40:47.334Z,8.50
2017-10-04T02:45:50.526Z,8.70
2017-10-04T02:50:53.739Z,8.90
2017-10-04T02:55:56.921Z,9.00
2017-10-04T03:01:00.134Z,9.00
2017-10-04T03:06:03.320Z,8.90
2017-10-04T03:11:06.529Z,8.80
2017-10-04T03:16:09.746Z,8.80
2017-10-04T03:21:12.973Z,8.80
2017-10-04T03:26:16.181Z,8.80
2017-10-04T03:31:19.421Z,8.80
2017-10-04T03:36:23.370Z,8.60
2017-10-04T03:41:26.552Z,8.70
2017-10-04T03:46:30.504Z,8.70
2017-10-04T03:51:33.685Z,8.60
2017-10-04T03:56:37.641Z,8.60
2017-10-04T04:01:40.852Z,8.70
2017-10-04T04:06:44.060Z,8.60
2017-10-04T04:11:47.350Z,8.50
2017-10-04T04:16:50.569Z,8.40
2017-10-04T04:21:53.771Z,8.50
2017-10-04T04:26:56.964Z,8.50
2017-10-04T04:32:00.261Z,8.50
2017-10-04T04:37:04.348Z,8.30
2017-10-04T04:42:07.523Z,8.30
2017-10-04T04:47:10.716Z,8.20
2017-10-04T04:52:13.900Z,8.10
2017-10-04T04:57:17.869Z,8.30
2017-10-04T05:02:21.233Z,8.20
2017-10-04T05:07:24.405Z,8.30
2017-10-04T05:12:27.631Z,8.00
2017-10-04T05:17:30.845Z,7.90
2017-10-04T05:22:34.805Z,8.10
2017-10-04T05:27:37.969Z,8.10
2017-10-04T05:32:41.249Z,8.00
2017-10-04T05:37:44.441Z,8.00
2017-10-04T05:42:47.975Z,8.10
2017-10-04T05:47:51.203Z,8.20
2017-10-04T05:52:54.395Z,8.10
2017-10-04T05:57:57.685Z,7.90
2017-10-04T06:03:00.890Z,8.10
2017-10-04T06:08:04.130Z,8.20
2017-10-04T06:13:07.501Z,8.30
2017-10-04T06:18:10.708Z,8.80
2017-10-04T06:23:13.882Z,9.10
2017-10-04T06:28:17.081Z,9.50
2017-10-04T06:33:21.053Z,10.20
2017-10-04T06:38:24.263Z,10.20
2017-10-04T06:43:27.472Z,10.20
2017-10-04T06:48:30.658Z,10.80
2017-10-04T06:53:33.841Z,10.70
2017-10-04T06:58:37.034Z,10.50
2017-10-04T07:03:40.228Z,10.40
2017-10-04T07:08:43.451Z,10.50
2017-10-04T07:13:47.435Z,10.70
2017-10-04T07:18:50.625Z,10.70
2017-10-04T07:23:53.830Z,10.90
2017-10-04T07:28:57.029Z,10.90
2017-10-04T07:34:00.219Z,11.40
2017-10-04T07:39:03.403Z,11.70
2017-10-04T07:44:07.496Z,13.00
2017-10-04T07:49:10.706Z,12.90
2017-10-04T07:54:13.897Z,12.50
2017-10-04T07:59:17.097Z,12.80
2017-10-04T08:04:20.305Z,12.60
2017-10-04T08:09:23.518Z,12.60
2017-10-04T08:14:26.673Z,12.80
2017-10-04T08:19:29.885Z,12.90
2017-10-04T08:24:33.849Z,13.00
2017-10-04T08:29:37.085Z,13.00
2017-10-04T08:34:40.281Z,12.80
2017-10-04T08:39:43.506Z,13.10
2017-10-04T08:44:47.465Z,13.40
2017-10-04T08:49:50.656Z,13.50
2017-10-04T08:54:53.917Z,13.90
2017-10-04T08:59:57.185Z,14.00
2017-10-04T09:05:18.241Z,13.90
2017-10-04T09:10:21.461Z,13.80
2017-10-04T09:15:24.642Z,14.50
2017-10-04T09:20:27.870Z,14.90
2017-10-04T09:25:31.059Z,15.10
2017-10-04T09:30:34.257Z,15.10
2017-10-04T09:35:37.452Z,14.70
2017-10-04T09:40:40.665Z,14.50
2017-10-04T09:45:43.845Z,14.40
2017-10-04T09:50:47.789Z,15.10
2017-10-04T09:55:50.999Z,15.00
2017-10-04T10:00:54.181Z,14.90
2017-10-04T10:05:58.133Z,14.50
2017-10-04T10:11:01.333Z,14.50
2017-10-04T10:16:04.519Z,14.50
2017-10-04T10:21:08.572Z,14.30
2017-10-04T10:26:11.772Z,14.30
2017-10-04T10:31:14.995Z,14.30
2017-10-04T10:36:18.173Z,14.50
2017-10-04T10:41:21.370Z,14.70
2017-10-04T10:46:25.332Z,14.80
2017-10-04T10:51:28.526Z,14.80
2017-10-04T10:56:31.733Z,14.80
2017-10-04T11:01:34.950Z,15.10
2017-10-04T11:06:38.161Z,15.50
2017-10-04T11:11:41.369Z,15.70
2017-10-04T11:16:44.777Z,15.90
2017-10-04T11:21:47.999Z,15.90
2017-10-04T11:26:51.206Z,15.60
2017-10-04T11:31:54.402Z,16.00
2017-10-04T11:36:57.736Z,15.80
2017-10-04T11:42:00.921Z,16.10
2017-10-04T11:47:04.257Z,15.90
2017-10-04T11:52:07.538Z,16.00
2017-10-04T11:57:10.757Z,15.70
2017-10-04T12:02:13.934Z,15.60
2017-10-04T12:07:17.151Z,15.50
2017-10-04T12:12:20.376Z,15.40
2017-10-04T12:17:23.569Z,15.50
2017-10-04T12:22:26.751Z,15.70
2017-10-04T12:27:29.969Z,15.70
2017-10-04T12:32:33.165Z,15.80
2017-10-04T12:37:36.442Z,16.00
2017-10-04T12:42:39.900Z,16.40
2017-10-04T12:47:43.105Z,16.30
2017-10-04T12:52:47.137Z,16.10
2017-10-04T12:57:50.366Z,16.10
2017-10-04T13:02:53.582Z,16.10
2017-10-04T13:07:56.810Z,16.20
2017-10-04T13:13:00.797Z,16.60
2017-10-04T13:18:04.019Z,16.60
2017-10-04T13:23:07.210Z,16.90
2017-10-04T13:28:10.542Z,16.70
2017-10-04T13:33:13.915Z,16.40
2017-10-04T13:38:17.207Z,16.30
2017-10-04T13:43:20.518Z,16.60
2017-10-04T13:48:23.747Z,16.70
2017-10-04T13:53:26.948Z,16.50
2017-10-04T13:58:30.160Z,16.20
2017-10-04T14:03:33.398Z,16.00
2017-10-04T14:08:37.378Z,15.80
2017-10-04T14:13:40.587Z,15.80
2017-10-04T14:18:43.937Z,15.70
2017-10-04T14:23:47.120Z,15.70
2017-10-04T14:28:50.450Z,15.70
2017-10-04T14:33:53.751Z,15.60
2017-10-04T14:38:57.100Z,15.50
2017-10-04T14:44:01.072Z,15.60
2017-10-04T14:49:04.295Z,15.60
2017-10-04T14:54:07.516Z,15.50
2017-10-04T14:59:10.818Z,15.40
2017-10-04T15:04:14.020Z,15.50
2017-10-04T15:09:17.331Z,15.40
2017-10-04T15:14:20.553Z,15.30
2017-10-04T15:19:23.755Z,15.20
2017-10-04T15:24:27.007Z,15.20
2017-10-04T15:29:30.375Z,15.10
2017-10-04T15:34:33.583Z,15.00
2017-10-04T15:39:36.767Z,14.90
2017-10-04T15:44:40.049Z,14.90
2017-10-04T15:49:43.249Z,14.80
2017-10-04T15:54:46.503Z,14.70
2017-10-04T15:59:49.782Z,14.60
2017-10-04T16:04:52.983Z,14.50
2017-10-04T16:09:56.181Z,14.50
2017-10-04T16:14:59.411Z,14.40
2017-10-04T16:20:02.640Z,14.40
2017-10-04T16:25:05.907Z,14.30
2017-10-04T16:30:09.114Z,14.20
2017-10-04T16:35:12.342Z,14.20
2017-10-04T16:40:15.747Z,14.20
2017-10-04T16:45:19.034Z,14.20
2017-10-04T16:50:22.274Z,14.20
2017-10-04T16:55:25.557Z,14.10
2017-10-04T17:00:28.846Z,14.00
2017-10-04T17:05:32.157Z,14.00
2017-10-04T17:10:35.386Z,13.90
2017-10-04T17:15:38.600Z,13.90
2017-10-04T17:20:41.798Z,13.90
2017-10-04T17:25:45.005Z,13.80
2017-10-04T17:30:48.229Z,14.00
2017-10-04T17:35:51.481Z,13.90
2017-10-04T17:40:56.293Z,13.80
2017-10-04T17:45:59.479Z,13.70
2017-10-04T17:51:02.682Z,13.60
2017-10-04T17:56:05.918Z,13.70
2017-10-04T18:01:09.161Z,13.70
2017-10-04T18:06:12.362Z,13.60
2017-10-04T18:11:16.599Z,13.60
2017-10-04T18:16:20.545Z,13.60
2017-10-04T18:21:23.774Z,13.50
2017-10-04T18:26:27.046Z,13.70
2017-10-04T18:31:30.376Z,13.60
2017-10-04T18:36:33.713Z,13.60
2017-10-04T18:41:36.995Z,13.60
2017-10-04T18:46:40.240Z,13.60
2017-10-04T18:51:43.595Z,13.50
2017-10-04T18:56:46.826Z,13.60
2017-10-04T19:01:50.214Z,13.50
2017-10-04T19:06:53.401Z,13.50
2017-10-04T19:11:56.644Z,13.40
2017-10-04T19:16:59.936Z,13.40
2017-10-04T19:22:03.199Z,13.40
2017-10-04T19:27:06.498Z,13.40
2017-10-04T19:32:09.704Z,13.30
2017-10-04T19:37:13.076Z,13.20
2017-10-04T19:42:16.328Z,13.30
2017-10-04T19:47:22.176Z,13.10
2017-10-04T19:52:25.391Z,13.20
2017-10-04T19:57:28.616Z,13.30
2017-10-04T20:02:31.863Z,13.30
2017-10-04T20:07:35.139Z,13.20
2017-10-04T20:12:38.309Z,13.20
2017-10-04T20:17:41.604Z,13.20
2017-10-04T20:22:44.822Z,13.20
2017-10-04T20:27:48.089Z,13.20
2017-10-04T20:32:51.304Z,13.30
2017-10-04T20:37:54.609Z,13.30
2017-10-04T20:42:57.851Z,13.30
2017-10-04T20:48:01.049Z,13.30
2017-10-04T20:53:04.262Z,13.20
2017-10-04T20:58:07.484Z,13.20
2017-10-04T21:03:10.692Z,13.20
2017-10-04T21:08:13.931Z,13.10
2017-10-04T21:13:17.137Z,13.20
2017-10-04T21:18:20.541Z,13.20
2017-10-04T21:23:24.528Z,13.20
2017-10-04T21:28:27.778Z,13.10
2017-10-04T21:33:31.058Z,13.20
2017-10-04T21:38:34.485Z,13.20
2017-10-04T21:43:37.701Z,13.20
2017-10-04T21:48:40.887Z,13.20
2017-10-04T21:53:44.081Z,13.20
2017-10-04T21:58:47.272Z,13.20
2017-10-04T22:03:50.477Z,13.30
2017-10-04T22:08:53.709Z,13.30
2017-10-04T22:13:56.922Z,13.30
2017-10-04T22:19:00.130Z,13.30
2017-10-04T22:24:03.355Z,13.30
2017-10-04T22:29:06.637Z,13.30
2017-10-04T22:34:09.822Z,13.20
2017-10-04T22:39:13.019Z,13.10
2017-10-04T22:44:16.217Z,13.20
2017-10-04T22:49:19.405Z,13.10
2017-10-04T22:54:23.369Z,13.00
2017-10-04T22:59:26.577Z,13.00
2017-10-04T23:04:29.782Z,13.00
2017-10-04T23:09:33.011Z,12.90
2017-10-04T23:14:36.202Z,12.90
2017-10-04T23:19:39.389Z,12.90
2017-10-04T23:24:42.593Z,13.00
2017-10-04T23:29:45.777Z,13.00
2017-10-04T23:34:49.011Z,13.00
2017-10-04T23:39:52.226Z,13.00
2017-10-04T23:44:55.426Z,13.00
2017-10-04T23:49:58.735Z,13.00
2017-10-04T23:55:01.955Z,13.00
